createdAt,value
2019-03-05T00:00:36.872Z,5.90
2019-03-05T00:03:05.676Z,5.80
2019-03-05T00:05:34.097Z,5.80
2019-03-05T00:08:02.522Z,5.70
2019-03-05T00:10:31.029Z,5.80
2019-03-05T00:12:59.450Z,5.80
2019-03-05T00:15:29.437Z,5.80
2019-03-05T00:17:57.882Z,5.70
2019-03-05T00:20:26.392Z,5.70
2019-03-05T00:22:54.883Z,5.70
2019-03-05T00:25:25.960Z,5.70
2019-03-05T00:28:07.995Z,5.70
2019-03-05T00:30:58.301Z,5.60
2019-03-05T00:33:38.553Z,5.60
2019-03-05T00:36:19.037Z,5.60
2019-03-05T00:38:56.163Z,5.50
2019-03-05T00:41:36.983Z,5.50
2019-03-05T00:44:17.517Z,5.50
2019-03-05T00:47:00.969Z,5.50
2019-03-05T00:49:59.602Z,5.50
2019-03-05T00:52:37.293Z,5.40
2019-03-05T00:55:20.914Z,5.50
2019-03-05T00:58:01.087Z,5.50
2019-03-05T01:00:44.774Z,5.30
2019-03-05T01:03:34.427Z,5.30
2019-03-05T01:06:23.519Z,5.30
2019-03-05T01:08:53.999Z,5.30
2019-03-05T01:11:22.947Z,5.30
2019-03-05T01:13:51.509Z,5.40
2019-03-05T01:16:24.197Z,5.40
2019-03-05T01:18:53.050Z,5.40
2019-03-05T01:21:21.497Z,5.40
2019-03-05T01:23:49.925Z,5.40
2019-03-05T01:26:18.351Z,5.40
2019-03-05T01:28:46.785Z,5.40
2019-03-05T01:31:17.393Z,5.40
2019-03-05T01:34:05.974Z,5.50
2019-03-05T01:36:38.828Z,5.50
2019-03-05T01:39:28.231Z,5.60
2019-03-05T01:41:56.725Z,5.60
2019-03-05T01:44:25.163Z,5.60
2019-03-05T01:46:54.881Z,5.50
2019-03-05T01:49:23.297Z,5.50
2019-03-05T01:51:51.829Z,5.40
2019-03-05T01:54:20.311Z,5.30
2019-03-05T01:56:49.518Z,5.30
2019-03-05T01:59:18.192Z,5.20
2019-03-05T02:01:46.902Z,5.20
2019-03-05T02:04:15.395Z,5.20
2019-03-05T02:06:43.836Z,5.20
2019-03-05T02:09:12.578Z,5.10
2019-03-05T02:11:41.350Z,5.10
2019-03-05T02:14:09.745Z,5.10
2019-03-05T02:16:38.472Z,5.10
2019-03-05T02:19:38.189Z,5.10
2019-03-05T02:22:09.562Z,5.10
2019-03-05T02:25:00.846Z,5.10
2019-03-05T02:28:07.070Z,5.10
2019-03-05T02:30:47.355Z,5.10
2019-03-05T02:33:28.203Z,5.10
2019-03-05T02:36:08.020Z,5.20
2019-03-05T02:38:57.173Z,5.10
2019-03-05T02:41:58.813Z,5.10
2019-03-05T02:44:48.687Z,5.10
2019-03-05T02:47:38.590Z,5.10
2019-03-05T02:50:10.213Z,5.10
2019-03-05T02:52:47.249Z,5.10
2019-03-05T02:55:30.778Z,5.10
2019-03-05T02:57:58.233Z,5.10
2019-03-05T03:00:28.330Z,5.10
2019-03-05T03:03:01.410Z,5.20
2019-03-05T03:05:43.154Z,5.20
2019-03-05T03:08:12.996Z,5.30
2019-03-05T03:10:41.561Z,5.20
2019-03-05T03:13:10.084Z,5.20
2019-03-05T03:15:38.554Z,5.20
2019-03-05T03:18:07.025Z,5.20
2019-03-05T03:20:35.471Z,5.30
2019-03-05T03:23:03.886Z,5.30
2019-03-05T03:25:32.285Z,5.30
2019-03-05T03:28:00.709Z,5.30
2019-03-05T03:30:29.956Z,5.30
2019-03-05T03:32:58.363Z,5.30
2019-03-05T03:35:26.780Z,5.30
2019-03-05T03:37:55.582Z,5.40
2019-03-05T03:40:24.160Z,5.40
2019-03-05T03:42:52.805Z,5.40
2019-03-05T03:45:21.713Z,5.40
2019-03-05T03:47:50.570Z,5.40
2019-03-05T03:50:19.063Z,5.30
2019-03-05T03:52:47.546Z,5.30
2019-03-05T03:55:16.226Z,5.30
2019-03-05T03:57:44.643Z,5.20
2019-03-05T04:00:18.319Z,5.30
2019-03-05T04:02:47.193Z,5.30
2019-03-05T04:05:15.661Z,5.30
2019-03-05T04:07:44.244Z,5.20
2019-03-05T04:10:14.466Z,5.20
2019-03-05T04:12:42.946Z,5.10
2019-03-05T04:15:16.470Z,5.10
2019-03-05T04:17:44.903Z,5.10
2019-03-05T04:20:16.999Z,5.10
2019-03-05T04:22:45.786Z,5.10
2019-03-05T04:25:14.198Z,5.10
2019-03-05T04:27:42.945Z,5.10
2019-03-05T04:30:13.538Z,5.10
2019-03-05T04:32:42.024Z,5.10
2019-03-05T04:35:12.078Z,5.00
2019-03-05T04:37:40.498Z,5.00
2019-03-05T04:40:10.747Z,5.00
2019-03-05T04:42:39.682Z,4.90
2019-03-05T04:45:48.708Z,4.90
2019-03-05T04:48:17.390Z,4.90
2019-03-05T04:50:53.290Z,4.90
2019-03-05T04:53:21.835Z,4.90
2019-03-05T04:55:50.254Z,4.90
2019-03-05T04:58:18.682Z,4.90
2019-03-05T05:00:47.101Z,4.80
2019-03-05T05:03:15.775Z,4.80
2019-03-05T05:05:44.489Z,4.80
2019-03-05T05:08:12.924Z,4.80
2019-03-05T05:10:41.362Z,4.70
2019-03-05T05:13:09.803Z,4.80
2019-03-05T05:15:38.450Z,4.80
2019-03-05T05:18:06.954Z,4.80
2019-03-05T05:20:35.424Z,4.80
2019-03-05T05:23:03.995Z,4.80
2019-03-05T05:25:32.407Z,4.80
2019-03-05T05:28:00.813Z,4.80
2019-03-05T05:30:37.476Z,4.70
2019-03-05T05:33:06.972Z,4.70
2019-03-05T05:35:35.405Z,4.70
2019-03-05T05:38:03.925Z,4.80
2019-03-05T05:40:34.881Z,4.80
2019-03-05T05:43:04.328Z,4.80
2019-03-05T05:45:41.762Z,4.80
2019-03-05T05:48:10.462Z,4.80
2019-03-05T05:50:38.919Z,4.80
2019-03-05T05:53:07.350Z,4.90
2019-03-05T05:55:35.804Z,4.90
2019-03-05T05:58:04.689Z,5.00
2019-03-05T06:00:33.615Z,5.00
2019-03-05T06:03:02.084Z,5.00
2019-03-05T06:05:30.558Z,5.10
2019-03-05T06:07:59.018Z,5.10
2019-03-05T06:10:27.501Z,5.10
2019-03-05T06:12:56.849Z,5.10
2019-03-05T06:15:25.273Z,5.20
2019-03-05T06:17:53.782Z,5.20
2019-03-05T06:20:22.354Z,5.30
2019-03-05T06:22:50.833Z,5.30
2019-03-05T06:25:19.342Z,5.40
2019-03-05T06:27:48.045Z,5.40
2019-03-05T06:30:18.707Z,5.50
2019-03-05T06:32:47.247Z,5.60
2019-03-05T06:35:15.761Z,5.70
2019-03-05T06:37:44.195Z,5.70
2019-03-05T06:40:17.760Z,5.70
2019-03-05T06:42:46.540Z,5.70
2019-03-05T06:45:17.143Z,5.80
2019-03-05T06:47:46.137Z,5.80
2019-03-05T06:50:16.749Z,5.80
2019-03-05T06:52:45.303Z,5.90
2019-03-05T06:55:15.238Z,5.90
2019-03-05T06:57:43.889Z,6.00
2019-03-05T07:00:35.554Z,6.10
2019-03-05T07:03:06.000Z,6.30
2019-03-05T07:06:11.392Z,6.40
2019-03-05T07:08:43.203Z,6.40
2019-03-05T07:11:20.439Z,6.40
2019-03-05T07:13:50.500Z,6.40
2019-03-05T07:16:47.690Z,6.40
2019-03-05T07:19:17.318Z,6.40
2019-03-05T07:21:51.380Z,6.40
2019-03-05T07:24:40.802Z,6.40
2019-03-05T07:27:09.895Z,6.40
2019-03-05T07:29:39.002Z,6.40
2019-03-05T07:32:07.504Z,6.30
2019-03-05T07:34:37.564Z,6.20
2019-03-05T07:37:07.843Z,6.00
2019-03-05T07:39:36.245Z,5.90
2019-03-05T07:42:04.795Z,5.90
2019-03-05T07:44:33.249Z,5.90
2019-03-05T07:47:02.626Z,6.00
2019-03-05T07:49:43.376Z,6.00
2019-03-05T07:52:04.196Z,6.00
2019-03-05T07:54:32.594Z,6.20
2019-03-05T07:57:01.214Z,6.40
2019-03-05T07:59:29.693Z,6.70
2019-03-05T08:01:58.156Z,6.90
2019-03-05T08:04:26.553Z,7.20
2019-03-05T08:06:54.984Z,7.30
2019-03-05T08:09:30.762Z,7.50
2019-03-05T08:12:17.293Z,7.50
2019-03-05T08:14:54.762Z,7.70
2019-03-05T08:17:23.918Z,7.90
2019-03-05T08:19:52.365Z,8.20
2019-03-05T08:22:20.967Z,8.50
2019-03-05T08:24:49.957Z,8.70
2019-03-05T08:27:18.420Z,9.10
2019-03-05T08:29:46.918Z,9.20
2019-03-05T08:32:15.370Z,9.30
2019-03-05T08:34:43.865Z,9.40
2019-03-05T08:37:13.458Z,9.50
2019-03-05T08:39:42.581Z,9.30
2019-03-05T08:42:10.979Z,9.20
2019-03-05T08:44:49.644Z,9.20
2019-03-05T08:47:09.562Z,9.10
2019-03-05T08:49:37.977Z,9.10
2019-03-05T08:52:06.396Z,9.00
2019-03-05T08:54:34.858Z,9.00
2019-03-05T08:57:03.787Z,9.00
2019-03-05T08:59:32.753Z,9.10
2019-03-05T09:02:01.629Z,9.10
2019-03-05T09:04:30.065Z,9.20
2019-03-05T09:06:58.819Z,9.30
2019-03-05T09:09:27.342Z,9.30
2019-03-05T09:11:55.958Z,9.40
2019-03-05T09:14:24.441Z,9.60
2019-03-05T09:16:52.850Z,9.70
2019-03-05T09:19:21.325Z,9.60
2019-03-05T09:21:50.290Z,9.60
2019-03-05T09:24:18.778Z,9.60
2019-03-05T09:26:51.569Z,9.50
2019-03-05T09:29:17.963Z,9.70
2019-03-05T09:31:46.397Z,9.70
2019-03-05T09:34:14.817Z,9.50
2019-03-05T09:36:51.034Z,9.40
2019-03-05T09:39:14.022Z,9.50
2019-03-05T09:41:42.442Z,9.40
2019-03-05T09:44:10.882Z,9.30
2019-03-05T09:46:39.325Z,9.30
2019-03-05T09:49:07.781Z,9.40
2019-03-05T09:51:36.276Z,9.70
2019-03-05T09:54:05.573Z,9.80
2019-03-05T09:56:33.969Z,9.80
2019-03-05T09:59:02.417Z,9.60
2019-03-05T10:01:30.830Z,9.50
2019-03-05T10:03:59.272Z,9.40
2019-03-05T10:06:27.688Z,9.60
2019-03-05T10:08:56.133Z,9.60
2019-03-05T10:11:24.779Z,9.50
2019-03-05T10:13:53.579Z,9.60
2019-03-05T10:16:22.003Z,9.80
2019-03-05T10:18:50.438Z,9.70
2019-03-05T10:21:19.246Z,9.80
2019-03-05T10:23:48.291Z,10.00
2019-03-05T10:26:18.689Z,9.80
2019-03-05T10:28:46.874Z,10.10
2019-03-05T10:31:15.303Z,10.00
2019-03-05T10:33:43.709Z,9.90
2019-03-05T10:36:12.176Z,9.70
2019-03-05T10:38:40.578Z,9.90
2019-03-05T10:41:09.097Z,10.00
2019-03-05T10:43:37.509Z,9.80
2019-03-05T10:46:06.053Z,9.80
2019-03-05T10:48:34.589Z,9.80
2019-03-05T10:51:03.079Z,9.90
2019-03-05T10:53:31.506Z,9.90
2019-03-05T10:55:59.937Z,10.00
2019-03-05T10:58:33.862Z,10.00
2019-03-05T11:00:58.540Z,10.20
2019-03-05T11:03:29.261Z,10.00
2019-03-05T11:05:57.694Z,9.90
2019-03-05T11:08:27.178Z,9.80
2019-03-05T11:10:56.479Z,9.70
2019-03-05T11:13:25.041Z,9.70
2019-03-05T11:15:59.424Z,9.80
2019-03-05T11:18:29.765Z,9.90
2019-03-05T11:20:58.053Z,9.90
2019-03-05T11:23:26.613Z,10.00
2019-03-05T11:25:55.132Z,10.00
2019-03-05T11:28:23.637Z,10.10
2019-03-05T11:30:52.187Z,10.20
2019-03-05T11:33:20.766Z,10.40
2019-03-05T11:35:49.394Z,10.40
2019-03-05T11:38:18.774Z,10.40
2019-03-05T11:40:47.253Z,10.40
2019-03-05T11:43:17.765Z,10.50
2019-03-05T11:45:46.596Z,10.60
2019-03-05T11:48:16.288Z,10.60
2019-03-05T11:50:45.372Z,10.70
2019-03-05T11:53:14.321Z,10.80
2019-03-05T11:55:42.911Z,10.70
2019-03-05T11:58:11.357Z,10.80
2019-03-05T12:00:47.460Z,10.90
2019-03-05T12:03:16.731Z,11.00
2019-03-05T12:05:45.146Z,11.00
2019-03-05T12:08:13.681Z,10.90
2019-03-05T12:10:42.158Z,10.90
2019-03-05T12:13:10.700Z,11.10
2019-03-05T12:15:43.598Z,11.10
2019-03-05T12:18:12.091Z,11.00
2019-03-05T12:20:40.512Z,10.90
2019-03-05T12:23:10.386Z,10.80
2019-03-05T12:25:40.001Z,10.80
2019-03-05T12:28:10.858Z,10.90
2019-03-05T12:30:39.884Z,10.90
2019-03-05T12:33:08.449Z,11.00
2019-03-05T12:35:36.900Z,11.20
2019-03-05T12:38:05.828Z,11.20
2019-03-05T12:40:34.309Z,11.40
2019-03-05T12:43:02.760Z,11.40
2019-03-05T12:45:31.560Z,11.30
2019-03-05T12:47:59.986Z,11.40
2019-03-05T12:50:30.782Z,11.30
2019-03-05T12:52:59.291Z,11.10
2019-03-05T12:55:27.776Z,11.00
2019-03-05T12:57:56.567Z,10.80
2019-03-05T13:00:27.483Z,10.70
2019-03-05T13:02:56.308Z,10.60
2019-03-05T13:05:25.079Z,10.50
2019-03-05T13:07:56.398Z,10.50
2019-03-05T13:10:26.038Z,10.50
2019-03-05T13:12:55.542Z,10.40
2019-03-05T13:15:39.141Z,10.30
2019-03-05T13:18:07.601Z,10.30
2019-03-05T13:20:36.065Z,10.10
2019-03-05T13:23:08.754Z,10.00
2019-03-05T13:25:34.906Z,9.90
2019-03-05T13:28:04.217Z,9.90
2019-03-05T13:30:33.724Z,9.80
2019-03-05T13:33:02.626Z,9.90
2019-03-05T13:35:32.198Z,9.90
2019-03-05T13:38:07.396Z,9.90
2019-03-05T13:40:38.538Z,10.00
2019-03-05T13:43:06.219Z,10.00
2019-03-05T13:45:36.855Z,9.90
2019-03-05T13:48:14.690Z,9.90
2019-03-05T13:51:09.762Z,9.90
2019-03-05T13:54:01.371Z,9.80
2019-03-05T13:56:44.105Z,9.70
2019-03-05T13:59:41.358Z,9.70
2019-03-05T14:02:10.515Z,9.70
2019-03-05T14:04:47.773Z,9.50
2019-03-05T14:07:28.273Z,9.60
2019-03-05T14:09:56.713Z,9.60
2019-03-05T14:12:25.204Z,9.50
2019-03-05T14:14:53.599Z,9.60
2019-03-05T14:17:23.407Z,9.60
2019-03-05T14:19:53.342Z,9.60
2019-03-05T14:22:21.925Z,9.50
2019-03-05T14:24:58.275Z,9.30
2019-03-05T14:27:20.559Z,9.20
2019-03-05T14:29:48.985Z,9.10
2019-03-05T14:32:17.429Z,9.10
2019-03-05T14:34:49.052Z,9.00
2019-03-05T14:37:17.547Z,8.90
2019-03-05T14:39:46.035Z,8.60
2019-03-05T14:42:14.624Z,8.30
2019-03-05T14:44:43.210Z,8.20
2019-03-05T14:47:11.656Z,8.00
2019-03-05T14:49:40.092Z,7.90
2019-03-05T14:52:08.603Z,7.90
2019-03-05T14:54:37.121Z,8.00
2019-03-05T14:57:05.721Z,8.00
2019-03-05T14:59:34.197Z,8.00
2019-03-05T15:02:02.684Z,8.00
2019-03-05T15:04:31.173Z,8.00
2019-03-05T15:06:59.588Z,8.00
2019-03-05T15:09:28.228Z,8.00
2019-03-05T15:11:56.690Z,8.00
2019-03-05T15:14:25.269Z,8.00
2019-03-05T15:16:53.745Z,8.10
2019-03-05T15:19:22.170Z,8.10
2019-03-05T15:21:51.445Z,8.00
2019-03-05T15:24:20.380Z,8.00
2019-03-05T15:26:51.267Z,8.00
2019-03-05T15:29:20.182Z,7.90
2019-03-05T15:31:49.161Z,8.00
2019-03-05T15:34:17.697Z,8.10
2019-03-05T15:36:47.251Z,8.00
2019-03-05T15:39:16.136Z,7.90
2019-03-05T15:44:17.199Z,7.90
2019-03-05T15:46:46.006Z,7.90
2019-03-05T15:49:16.262Z,7.80
2019-03-05T15:51:48.124Z,7.80
2019-03-05T15:54:16.676Z,7.70
2019-03-05T15:56:46.244Z,7.60
2019-03-05T15:59:15.173Z,7.60
2019-03-05T16:01:43.991Z,7.60
2019-03-05T16:04:12.802Z,7.60
2019-03-05T16:06:42.955Z,7.60
2019-03-05T16:09:15.992Z,7.60
2019-03-05T16:11:45.501Z,7.60
2019-03-05T16:14:13.955Z,7.50
2019-03-05T16:16:42.373Z,7.50
2019-03-05T16:19:12.430Z,7.50
2019-03-05T16:21:41.577Z,7.50
2019-03-05T16:24:11.315Z,7.60
2019-03-05T16:26:39.878Z,7.70
2019-03-05T16:29:08.740Z,7.70
2019-03-05T16:31:45.366Z,7.80
2019-03-05T16:34:14.414Z,7.80
2019-03-05T16:36:44.778Z,7.80
2019-03-05T16:39:18.290Z,7.70
2019-03-05T16:41:53.509Z,7.70
2019-03-05T16:44:38.907Z,7.80
2019-03-05T16:47:25.613Z,7.90
2019-03-05T16:50:11.556Z,7.80
2019-03-05T16:52:57.929Z,7.80
2019-03-05T16:55:45.461Z,7.90
2019-03-05T16:58:32.676Z,7.90
2019-03-05T17:01:14.526Z,7.90
2019-03-05T17:04:00.867Z,7.80
2019-03-05T17:06:36.970Z,7.70
2019-03-05T17:09:13.800Z,7.70
2019-03-05T17:11:58.114Z,7.70
2019-03-05T17:14:27.021Z,7.70
2019-03-05T17:16:55.523Z,7.70
2019-03-05T17:19:24.012Z,7.70
2019-03-05T17:21:53.205Z,7.80
2019-03-05T17:24:21.875Z,7.80
2019-03-05T17:26:50.392Z,7.80
2019-03-05T17:29:19.328Z,7.80
2019-03-05T17:31:59.398Z,7.90
2019-03-05T17:34:27.947Z,7.90
2019-03-05T17:36:56.379Z,7.90
2019-03-05T17:39:25.181Z,7.90
2019-03-05T17:41:53.605Z,7.90
2019-03-05T17:44:22.017Z,7.90
2019-03-05T17:46:50.469Z,7.90
2019-03-05T17:49:18.882Z,7.90
2019-03-05T17:51:47.309Z,7.80
2019-03-05T17:54:15.842Z,7.60
2019-03-05T17:56:44.257Z,7.40
2019-03-05T17:59:12.886Z,7.30
2019-03-05T18:01:41.490Z,7.10
2019-03-05T18:04:09.921Z,6.80
2019-03-05T18:06:38.352Z,6.50
2019-03-05T18:09:07.737Z,6.40
2019-03-05T18:11:36.177Z,6.20
2019-03-05T18:14:05.031Z,6.10
2019-03-05T18:16:33.437Z,6.10
2019-03-05T18:19:01.885Z,6.10
2019-03-05T18:21:30.346Z,6.10
2019-03-05T18:23:58.755Z,6.10
2019-03-05T18:26:27.155Z,6.20
2019-03-05T18:28:57.263Z,6.30
2019-03-05T18:31:25.844Z,6.30
2019-03-05T18:33:54.393Z,6.30
2019-03-05T18:36:22.903Z,6.30
2019-03-05T18:38:51.338Z,6.30
2019-03-05T18:41:19.726Z,6.30
2019-03-05T18:43:48.162Z,6.30
2019-03-05T18:46:16.625Z,6.30
2019-03-05T18:48:45.404Z,6.30
2019-03-05T18:51:13.859Z,6.20
2019-03-05T18:53:42.374Z,6.20
2019-03-05T18:56:10.764Z,6.20
2019-03-05T18:58:39.177Z,6.20
2019-03-05T19:01:09.739Z,6.20
2019-03-05T19:03:38.686Z,6.20
2019-03-05T19:06:07.298Z,6.20
2019-03-05T19:08:35.796Z,6.10
2019-03-05T19:11:04.935Z,6.10
2019-03-05T19:13:33.592Z,6.10
2019-03-05T19:16:03.018Z,6.10
2019-03-05T19:18:31.567Z,6.10
2019-03-05T19:21:00.066Z,6.10
2019-03-05T19:23:28.481Z,6.10
2019-03-05T19:25:57.069Z,6.10
2019-03-05T19:28:25.495Z,6.10
2019-03-05T19:30:53.898Z,6.10
2019-03-05T19:33:22.561Z,6.10
2019-03-05T19:35:51.021Z,6.10
2019-03-05T19:38:19.733Z,6.10
2019-03-05T19:40:48.746Z,6.10
2019-03-05T19:43:17.232Z,6.10
2019-03-05T19:45:45.733Z,6.10
2019-03-05T19:48:14.164Z,6.10
2019-03-05T19:50:43.038Z,6.10
2019-03-05T19:53:11.518Z,6.10
2019-03-05T19:55:39.974Z,6.10
2019-03-05T19:58:09.140Z,6.10
2019-03-05T20:00:52.780Z,6.10
2019-03-05T20:03:21.287Z,6.10
2019-03-05T20:05:49.740Z,6.00
2019-03-05T20:08:18.153Z,6.10
2019-03-05T20:10:47.021Z,6.10
2019-03-05T20:13:15.695Z,6.10
2019-03-05T20:15:44.188Z,6.10
2019-03-05T20:18:12.586Z,6.10
2019-03-05T20:20:41.033Z,6.10
2019-03-05T20:23:09.506Z,6.10
2019-03-05T20:25:38.591Z,6.10
2019-03-05T20:28:07.264Z,6.10
2019-03-05T20:30:35.671Z,6.10
2019-03-05T20:33:04.183Z,6.10
2019-03-05T20:35:32.690Z,6.10
2019-03-05T20:38:01.097Z,6.10
2019-03-05T20:40:30.605Z,6.20
2019-03-05T20:43:06.827Z,6.20
2019-03-05T20:45:44.392Z,6.20
2019-03-05T20:48:12.861Z,6.30
2019-03-05T20:50:41.570Z,6.30
2019-03-05T20:53:10.053Z,6.30
2019-03-05T20:55:38.478Z,6.30
2019-03-05T20:58:06.981Z,6.30
2019-03-05T21:00:37.738Z,6.30
2019-03-05T21:03:09.220Z,6.30
2019-03-05T21:05:46.909Z,6.20
2019-03-05T21:08:15.316Z,6.20
2019-03-05T21:10:44.062Z,6.20
2019-03-05T21:13:12.503Z,6.20
2019-03-05T21:15:41.193Z,6.20
2019-03-05T21:18:12.055Z,6.30
2019-03-05T21:20:40.773Z,6.30
2019-03-05T21:23:09.278Z,6.30
2019-03-05T21:25:37.773Z,6.30
2019-03-05T21:28:06.710Z,6.30
2019-03-05T21:30:35.507Z,6.30
2019-03-05T21:33:03.991Z,6.20
2019-03-05T21:35:32.505Z,6.30
2019-03-05T21:38:01.042Z,6.30
2019-03-05T21:40:32.039Z,6.30
2019-03-05T21:43:00.469Z,6.30
2019-03-05T21:45:40.599Z,6.30
2019-03-05T21:48:09.571Z,6.30
2019-03-05T21:50:37.968Z,6.30
2019-03-05T21:53:06.527Z,6.40
2019-03-05T21:55:35.034Z,6.40
2019-03-05T21:58:03.542Z,6.40
2019-03-05T22:00:34.454Z,6.40
2019-03-05T22:03:03.166Z,6.40
2019-03-05T22:05:31.671Z,6.30
2019-03-05T22:08:00.095Z,6.20
2019-03-05T22:10:28.812Z,6.20
2019-03-05T22:12:57.436Z,6.20
2019-03-05T22:15:32.829Z,6.30
2019-03-05T22:18:01.274Z,6.30
2019-03-05T22:20:29.685Z,6.40
2019-03-05T22:22:58.545Z,6.40
2019-03-05T22:25:28.947Z,6.50
2019-03-05T22:27:57.738Z,6.50
2019-03-05T22:30:36.577Z,6.50
2019-03-05T22:33:05.132Z,6.50
2019-03-05T22:35:33.529Z,6.60
2019-03-05T22:38:01.980Z,6.50
2019-03-05T22:40:30.726Z,6.50
2019-03-05T22:42:59.135Z,6.40
2019-03-05T22:45:33.370Z,6.50
2019-03-05T22:48:01.777Z,6.40
2019-03-05T22:50:30.183Z,6.40
2019-03-05T22:52:58.601Z,6.30
2019-03-05T22:55:27.010Z,6.30
2019-03-05T22:57:55.815Z,6.30
2019-03-05T23:00:38.032Z,6.20
2019-03-05T23:03:09.503Z,6.20
2019-03-05T23:05:37.966Z,6.30
2019-03-05T23:08:06.919Z,6.30
2019-03-05T23:10:35.627Z,6.30
2019-03-05T23:13:04.761Z,6.00
2019-03-05T23:15:34.004Z,5.80
2019-03-05T23:18:02.406Z,5.70
2019-03-05T23:20:31.228Z,5.80
2019-03-05T23:22:59.702Z,5.90
2019-03-05T23:25:28.191Z,5.90
2019-03-05T23:27:56.862Z,6.00
2019-03-05T23:30:26.071Z,6.00
2019-03-05T23:32:54.859Z,5.90
2019-03-05T23:35:23.258Z,5.90
2019-03-05T23:37:51.689Z,5.90
2019-03-05T23:40:20.443Z,5.80
2019-03-05T23:42:48.947Z,5.80
2019-03-05T23:45:20.817Z,5.70
2019-03-05T23:47:49.243Z,5.70
2019-03-05T23:50:18.021Z,5.70
2019-03-05T23:52:46.502Z,5.70
2019-03-05T23:55:15.778Z,5.60
2019-03-05T23:57:44.453Z,5.50
